KBRO

Brownsville / South Padre Island International Airport

Brownsville, Texas, USA
METAR KBRO 181253Z 00000KT 10SM CLR 12/12 A3005 RMK AO2 SLP175 T01220122
Observed Flight Rules
Dec-18 @ 12:53 UTC (48 minutes ago) Visual Flight Rules
Visibility Clouds
10 miles
  • Clear skies
Temperatures Readings
Current 12°C / 54°F
Dewpoint 12°C / 54°F
Humidity 100%
Altimeter 30.05" Hg
Pressure 1017.5 hPa
Elevation 7
METAR KBRO 181253Z 00000KT 10SM CLR 12/12 A3005 RMK AO2 SLP175 T01220122
Observed Flight Rules
Dec-18 @ 12:53 UTC
(48 minutes ago)
VFR
Clouds
  • Clear skies
Temperature Dewpoint
12°C / 54°F 12°C / 54°F
Humidity Altimeter Pressure
100% 30.05" Hg 1017.5 hPa